Test XHTML 1.0 Strict Page for WU-History Testing
Station Historical Data
 
Daily Summary for April 24, 2014 Units:  Both    English   Metric
« Previous Day
Next Day »
Daily Weekly Monthly Yearly Custom
  Current: High: Low: Average:
Temperature: 53.6 °F /  12 °C 53.8 °F /  12.1 °C 41.5 °F /  5.3 °C 45.8 °F /  7.7 °C
Dew Point: 49.2 °F /  9.6 °C 50.1 °F /  10.1 °C 41.5 °F /  5.3 °C 45.4 °F /  7.4 °C
Humidity: 85% 100% 85% 99%
Wind Speed: 1.2mph /  1.9km/h 4.6mph /  7.4km/h - 0.5mph /  0.8km/h
Wind Gust: 1.2mph /  1.9km/h 4.6mph /  7.4km/h - -
WindEast - - South
Pressure: 30.13 in /  1020.2 hPa 30.14 in /  1020.5 hPa 30.08 in /  1018.5 hPa -
Precipitation: 0.00 in /  0 mm      
Historical Graphs
 
 
Weather-Above Climate History
Untitled
Tabular Data for April 24, 2014
Time Temperature Dew Point Pressure Wind Wind Speed Wind Gust Humidity Rainfall Rate (Hourly)
00:01 48.0 °F /  8.9 °C 48.0 °F /  8.9 °C 30.08in /  1018.5hPa SSE 3.5mph /  5.6km/h 3.5mph /  5.6km/h 100% 0.01in /  0.25cm
00:06 47.7 °F /  8.7 °C 47.7 °F /  8.7 °C 30.08in /  1018.5hPa SSE 1.2mph /  1.9km/h 1.2mph /  1.9km/h 100% 0.01in /  0.25cm
00:11 47.3 °F /  8.5 °C 47.3 °F /  8.5 °C 30.08in /  1018.5hPa Calm     100% 0.01in /  0.25cm
00:16 46.9 °F /  8.3 °C 46.9 °F /  8.3 °C 30.08in /  1018.5hPa Calm     100% 0.00in /  0cm
00:21 46.6 °F /  8.1 °C 46.6 °F /  8.1 °C 30.08in /  1018.5hPa Calm     100% 0.00in /  0cm
00:26 46.4 °F /  8 °C 46.4 °F /  8 °C 30.08in /  1018.5hPa Calm     100% 0.00in /  0cm
00:31 46.2 °F /  7.9 °C 46.2 °F /  7.9 °C 30.08in /  1018.5hPa Calm     100% 0.00in /  0cm
00:36 46.2 °F /  7.9 °C 46.2 °F /  7.9 °C 30.08in /  1018.5hPa Calm     100% 0.00in /  0cm
00:41 46.2 °F /  7.9 °C 46.2 °F /  7.9 °C 30.08in /  1018.5hPa Calm     100% 0.00in /  0cm
00:46 45.9 °F /  7.7 °C 45.9 °F /  7.7 °C 30.08in /  1018.5hPa Calm     100% 0.00in /  0cm
00:51 45.9 °F /  7.7 °C 45.9 °F /  7.7 °C 30.08in /  1018.5hPa Calm     100% 0.00in /  0cm
00:56 45.5 °F /  7.5 °C 45.5 °F /  7.5 °C 30.08in /  1018.5hPa SW 2.3mph /  3.7km/h   100% 0.00in /  0cm
01:01 45.3 °F /  7.4 °C 45.3 °F /  7.4 °C 30.09in /  1018.8hPa Calm     100% 0.00in /  0cm
01:06 45.3 °F /  7.4 °C 45.3 °F /  7.4 °C 30.10in /  1019.2hPa Calm     100% 0.00in /  0cm
01:11 45.3 °F /  7.4 °C 45.3 °F /  7.4 °C 30.09in /  1018.8hPa Calm     100% 0.00in /  0cm
01:16 45.0 °F /  7.2 °C 45.0 °F /  7.2 °C 30.09in /  1018.8hPa Calm     100% 0.00in /  0cm
01:21 44.4 °F /  6.9 °C 44.4 °F /  6.9 °C 30.09in /  1018.8hPa Calm     100% 0.00in /  0cm
01:26 44.1 °F /  6.7 °C 44.1 °F /  6.7 °C 30.09in /  1018.8hPa Calm     100% 0.00in /  0cm
01:31 43.9 °F /  6.6 °C 43.9 °F /  6.6 °C 30.09in /  1018.8hPa Calm     100% 0.00in /  0cm
01:36 43.5 °F /  6.4 °C 43.5 °F /  6.4 °C 30.09in /  1018.8hPa Calm     100% 0.00in /  0cm
01:41 43.7 °F /  6.5 °C 43.7 °F /  6.5 °C 30.09in /  1018.8hPa Calm     100% 0.00in /  0cm
01:46 43.7 °F /  6.5 °C 43.7 °F /  6.5 °C 30.08in /  1018.5hPa Calm     100% 0.00in /  0cm
01:51 43.5 °F /  6.4 °C 43.5 °F /  6.4 °C 30.09in /  1018.8hPa Calm     100% 0.00in /  0cm
01:56 43.2 °F /  6.2 °C 43.2 °F /  6.2 °C 30.08in /  1018.5hPa Calm     100% 0.00in /  0cm
02:01 43.2 °F /  6.2 °C 43.2 °F /  6.2 °C 30.09in /  1018.8hPa Calm     100% 0.00in /  0cm
02:06 42.8 °F /  6 °C 42.8 °F /  6 °C 30.09in /  1018.8hPa Calm     100% 0.00in /  0cm
02:11 42.6 °F /  5.9 °C 42.6 °F /  5.9 °C 30.09in /  1018.8hPa Calm     100% 0.00in /  0cm
02:16 42.6 °F /  5.9 °C 42.6 °F /  5.9 °C 30.10in /  1019.2hPa Calm     100% 0.00in /  0cm
02:21 42.6 °F /  5.9 °C 42.6 °F /  5.9 °C 30.09in /  1018.8hPa Calm     100% 0.00in /  0cm
02:26 42.6 °F /  5.9 °C 42.6 °F /  5.9 °C 30.09in /  1018.8hPa Calm     100% 0.00in /  0cm
02:31 42.6 °F /  5.9 °C 42.6 °F /  5.9 °C 30.09in /  1018.8hPa Calm     100% 0.00in /  0cm
02:36 42.8 °F /  6 °C 42.8 °F /  6 °C 30.10in /  1019.2hPa Calm     100% 0.00in /  0cm
02:41 42.6 °F /  5.9 °C 42.6 °F /  5.9 °C 30.09in /  1018.8hPa Calm     100% 0.00in /  0cm
02:46 42.6 °F /  5.9 °C 42.6 °F /  5.9 °C 30.10in /  1019.2hPa Calm     100% 0.00in /  0cm
02:51 42.6 °F /  5.9 °C 42.6 °F /  5.9 °C 30.10in /  1019.2hPa Calm     100% 0.00in /  0cm
02:56 42.3 °F /  5.7 °C 42.3 °F /  5.7 °C 30.09in /  1018.8hPa Calm     100% 0.00in /  0cm
03:01 42.3 °F /  5.7 °C 42.3 °F /  5.7 °C 30.09in /  1018.8hPa Calm     100% 0.00in /  0cm
03:06 42.3 °F /  5.7 °C 42.3 °F /  5.7 °C 30.09in /  1018.8hPa Calm     100% 0.00in /  0cm
03:11 42.4 °F /  5.8 °C 42.4 °F /  5.8 °C 30.09in /  1018.8hPa Calm     100% 0.00in /  0cm
03:16 42.3 °F /  5.7 °C 42.3 °F /  5.7 °C 30.09in /  1018.8hPa Calm     100% 0.00in /  0cm
03:21 41.9 °F /  5.5 °C 41.9 °F /  5.5 °C 30.09in /  1018.8hPa Calm     100% 0.00in /  0cm
03:26 41.7 °F /  5.4 °C 41.7 °F /  5.4 °C 30.09in /  1018.8hPa Calm     100% 0.00in /  0cm
03:31 41.7 °F /  5.4 °C 41.7 °F /  5.4 °C 30.10in /  1019.2hPa Calm     100% 0.00in /  0cm
03:36 41.9 °F /  5.5 °C 41.9 °F /  5.5 °C 30.10in /  1019.2hPa Calm     100% 0.00in /  0cm
03:41 41.9 °F /  5.5 °C 41.9 °F /  5.5 °C 30.10in /  1019.2hPa Calm     100% 0.00in /  0cm
03:46 41.7 °F /  5.4 °C 41.7 °F /  5.4 °C 30.10in /  1019.2hPa Calm     100% 0.00in /  0cm
03:51 41.7 °F /  5.4 °C 41.7 °F /  5.4 °C 30.10in /  1019.2hPa Calm     100% 0.00in /  0cm
03:56 41.7 °F /  5.4 °C 41.7 °F /  5.4 °C 30.10in /  1019.2hPa Calm     100% 0.00in /  0cm
04:01 41.5 °F /  5.3 °C 41.5 °F /  5.3 °C 30.10in /  1019.2hPa Calm     100% 0.00in /  0cm
04:06 41.9 °F /  5.5 °C 41.9 °F /  5.5 °C 30.10in /  1019.2hPa Calm     100% 0.00in /  0cm
04:11 42.3 °F /  5.7 °C 42.3 °F /  5.7 °C 30.10in /  1019.2hPa Calm     100% 0.00in /  0cm
04:16 42.3 °F /  5.7 °C 42.3 °F /  5.7 °C 30.10in /  1019.2hPa Calm     100% 0.00in /  0cm
04:21 42.4 °F /  5.8 °C 42.4 °F /  5.8 °C 30.10in /  1019.2hPa Calm     100% 0.00in /  0cm
04:26 42.6 °F /  5.9 °C 42.6 °F /  5.9 °C 30.10in /  1019.2hPa Calm     100% 0.00in /  0cm
04:31 42.6 °F /  5.9 °C 42.6 °F /  5.9 °C 30.10in /  1019.2hPa Calm     100% 0.00in /  0cm
04:36 42.6 °F /  5.9 °C 42.6 °F /  5.9 °C 30.10in /  1019.2hPa Calm     100% 0.00in /  0cm
04:41 42.8 °F /  6 °C 42.8 °F /  6 °C 30.10in /  1019.2hPa Calm     100% 0.00in /  0cm
04:46 42.8 °F /  6 °C 42.8 °F /  6 °C 30.10in /  1019.2hPa Calm     100% 0.00in /  0cm
04:51 43.0 °F /  6.1 °C 43.0 °F /  6.1 °C 30.10in /  1019.2hPa Calm     100% 0.00in /  0cm
04:56 43.2 °F /  6.2 °C 43.2 °F /  6.2 °C 30.10in /  1019.2hPa Calm     100% 0.00in /  0cm
05:01 43.3 °F /  6.3 °C 43.3 °F /  6.3 °C 30.10in /  1019.2hPa Calm     100% 0.00in /  0cm
05:03 43.3 °F /  6.3 °C 43.3 °F /  6.3 °C 30.10in /  1019.2hPa Calm     100% 0.00in /  0cm
05:06 43.5 °F /  6.4 °C 43.5 °F /  6.4 °C 30.10in /  1019.2hPa WNW 1.2mph /  1.9km/h 1.2mph /  1.9km/h 100% 0.00in /  0cm
05:07 43.5 °F /  6.4 °C 43.5 °F /  6.4 °C 30.10in /  1019.2hPa West 2.3mph /  3.7km/h   100% 0.00in /  0cm
05:08 43.5 °F /  6.4 °C 43.5 °F /  6.4 °C 30.10in /  1019.2hPa Calm     100% 0.00in /  0cm
05:13 43.7 °F /  6.5 °C 43.7 °F /  6.5 °C 30.10in /  1019.2hPa Calm     100% 0.00in /  0cm
05:17 44.1 °F /  6.7 °C 44.1 °F /  6.7 °C 30.10in /  1019.2hPa Calm     100% 0.00in /  0cm
05:22 43.9 °F /  6.6 °C 43.9 °F /  6.6 °C 30.10in /  1019.2hPa Calm     100% 0.00in /  0cm
05:27 43.9 °F /  6.6 °C 43.9 °F /  6.6 °C 30.10in /  1019.2hPa Calm     100% 0.00in /  0cm
05:32 44.1 °F /  6.7 °C 44.1 °F /  6.7 °C 30.10in /  1019.2hPa Calm     100% 0.00in /  0cm
05:37 44.2 °F /  6.8 °C 44.2 °F /  6.8 °C 30.11in /  1019.5hPa Calm     100% 0.00in /  0cm
05:42 44.2 °F /  6.8 °C 44.2 °F /  6.8 °C 30.11in /  1019.5hPa Calm     100% 0.00in /  0cm
05:47 44.6 °F /  7 °C 44.6 °F /  7 °C 30.11in /  1019.5hPa Calm     100% 0.00in /  0cm
05:52 44.4 °F /  6.9 °C 44.4 °F /  6.9 °C 30.11in /  1019.5hPa Calm     100% 0.00in /  0cm
05:57 44.8 °F /  7.1 °C 44.8 °F /  7.1 °C 30.11in /  1019.5hPa Calm     100% 0.00in /  0cm
06:02 44.8 °F /  7.1 °C 44.8 °F /  7.1 °C 30.11in /  1019.5hPa Calm     100% 0.00in /  0cm
06:07 45.0 °F /  7.2 °C 45.0 °F /  7.2 °C 30.11in /  1019.5hPa Calm     100% 0.00in /  0cm
06:12 45.0 °F /  7.2 °C 45.0 °F /  7.2 °C 30.11in /  1019.5hPa Calm     100% 0.00in /  0cm
06:17 45.1 °F /  7.3 °C 45.1 °F /  7.3 °C 30.11in /  1019.5hPa Calm     100% 0.00in /  0cm
06:22 45.1 °F /  7.3 °C 45.1 °F /  7.3 °C 30.11in /  1019.5hPa Calm     100% 0.00in /  0cm
06:27 45.3 °F /  7.4 °C 45.3 °F /  7.4 °C 30.12in /  1019.9hPa Calm     100% 0.00in /  0cm
06:32 45.5 °F /  7.5 °C 45.5 °F /  7.5 °C 30.12in /  1019.9hPa Calm     100% 0.00in /  0cm
06:37 45.5 °F /  7.5 °C 45.5 °F /  7.5 °C 30.12in /  1019.9hPa Calm     100% 0.00in /  0cm
06:42 45.9 °F /  7.7 °C 45.9 °F /  7.7 °C 30.12in /  1019.9hPa SSE 2.3mph /  3.7km/h 2.3mph /  3.7km/h 100% 0.00in /  0cm
06:47 45.9 °F /  7.7 °C 45.9 °F /  7.7 °C 30.13in /  1020.2hPa Calm     100% 0.00in /  0cm
06:52 46.0 °F /  7.8 °C 46.0 °F /  7.8 °C 30.12in /  1019.9hPa Calm     100% 0.00in /  0cm
06:57 46.2 °F /  7.9 °C 46.2 °F /  7.9 °C 30.12in /  1019.9hPa Calm     100% 0.00in /  0cm
07:02 46.4 °F /  8 °C 46.4 °F /  8 °C 30.12in /  1019.9hPa Calm     100% 0.00in /  0cm
07:07 46.4 °F /  8 °C 46.4 °F /  8 °C 30.13in /  1020.2hPa Calm     100% 0.00in /  0cm
07:12 46.4 °F /  8 °C 46.4 °F /  8 °C 30.12in /  1019.9hPa Calm     100% 0.00in /  0cm
07:17 46.2 °F /  7.9 °C 46.2 °F /  7.9 °C 30.12in /  1019.9hPa South 0.5mph /  0.8km/h 0.5mph /  0.8km/h 100% 0.00in /  0cm
07:22 46.4 °F /  8 °C 46.4 °F /  8 °C 30.12in /  1019.9hPa Calm     100% 0.00in /  0cm
07:27 46.4 °F /  8 °C 46.4 °F /  8 °C 30.12in /  1019.9hPa Calm     100% 0.00in /  0cm
07:32 46.8 °F /  8.2 °C 46.8 °F /  8.2 °C 30.13in /  1020.2hPa Calm     100% 0.00in /  0cm
07:37 46.8 °F /  8.2 °C 46.8 °F /  8.2 °C 30.13in /  1020.2hPa Calm     100% 0.00in /  0cm
07:42 46.9 °F /  8.3 °C 46.9 °F /  8.3 °C 30.13in /  1020.2hPa Calm     100% 0.00in /  0cm
07:47 47.1 °F /  8.4 °C 47.1 °F /  8.4 °C 30.13in /  1020.2hPa Calm     100% 0.00in /  0cm
07:52 46.9 °F /  8.3 °C 46.9 °F /  8.3 °C 30.13in /  1020.2hPa Calm     100% 0.00in /  0cm
07:57 46.9 °F /  8.3 °C 46.9 °F /  8.3 °C 30.13in /  1020.2hPa Calm     100% 0.00in /  0cm
08:03 47.1 °F /  8.4 °C 47.1 °F /  8.4 °C 30.13in /  1020.2hPa Calm     100% 0.00in /  0cm
08:08 46.8 °F /  8.2 °C 46.8 °F /  8.2 °C 30.13in /  1020.2hPa Calm     100% 0.00in /  0cm
08:13 46.8 °F /  8.2 °C 46.8 °F /  8.2 °C 30.13in /  1020.2hPa Calm     100% 0.00in /  0cm
08:18 47.1 °F /  8.4 °C 47.1 °F /  8.4 °C 30.13in /  1020.2hPa Calm     100% 0.00in /  0cm
08:23 47.3 °F /  8.5 °C 47.3 °F /  8.5 °C 30.13in /  1020.2hPa Calm     100% 0.00in /  0cm
08:28 47.7 °F /  8.7 °C 47.7 °F /  8.7 °C 30.13in /  1020.2hPa Calm     100% 0.00in /  0cm
08:33 47.3 °F /  8.5 °C 47.3 °F /  8.5 °C 30.14in /  1020.5hPa Calm     100% 0.00in /  0cm
08:38 48.0 °F /  8.9 °C 48.0 °F /  8.9 °C 30.14in /  1020.5hPa West 3.3mph /  5.3km/h 3.3mph /  5.3km/h 100% 0.00in /  0cm
08:43 47.5 °F /  8.6 °C 47.5 °F /  8.6 °C 30.13in /  1020.2hPa Calm     100% 0.00in /  0cm
08:48 47.3 °F /  8.5 °C 47.3 °F /  8.5 °C 30.13in /  1020.2hPa Calm     100% 0.00in /  0cm
08:53 47.7 °F /  8.7 °C 47.7 °F /  8.7 °C 30.14in /  1020.5hPa Calm     100% 0.00in /  0cm
08:58 48.2 °F /  9 °C 48.2 °F /  9 °C 30.14in /  1020.5hPa Calm     100% 0.00in /  0cm
09:03 48.6 °F /  9.2 °C 48.6 °F /  9.2 °C 30.14in /  1020.5hPa Calm     100% 0.00in /  0cm
09:08 48.7 °F /  9.3 °C 48.7 °F /  9.3 °C 30.14in /  1020.5hPa Calm     100% 0.00in /  0cm
09:13 48.7 °F /  9.3 °C 48.7 °F /  9.3 °C 30.14in /  1020.5hPa Calm     100% 0.00in /  0cm
09:18 49.1 °F /  9.5 °C 48.8 °F /  9.3 °C 30.14in /  1020.5hPa Calm     99% 0.00in /  0cm
09:23 49.1 °F /  9.5 °C 48.6 °F /  9.2 °C 30.14in /  1020.5hPa Calm     98% 0.00in /  0cm
09:28 49.5 °F /  9.7 °C 48.9 °F /  9.4 °C 30.14in /  1020.5hPa South 1.2mph /  1.9km/h 1.7mph /  2.7km/h 98% 0.00in /  0cm
09:33 49.6 °F /  9.8 °C 49.1 °F /  9.5 °C 30.14in /  1020.5hPa South 3.5mph /  5.6km/h 3.5mph /  5.6km/h 98% 0.00in /  0cm
09:38 49.6 °F /  9.8 °C 48.8 °F /  9.3 °C 30.14in /  1020.5hPa Calm     97% 0.00in /  0cm
09:43 49.8 °F /  9.9 °C 49.0 °F /  9.4 °C 30.14in /  1020.5hPa Calm     97% 0.00in /  0cm
09:48 50.9 °F /  10.5 °C 50.1 °F /  10.1 °C 30.14in /  1020.5hPa SSE 4.6mph /  7.4km/h 4.6mph /  7.4km/h 97% 0.00in /  0cm
09:53 50.9 °F /  10.5 °C 49.8 °F /  9.9 °C 30.14in /  1020.5hPa SSE 4.6mph /  7.4km/h 4.6mph /  7.4km/h 96% 0.00in /  0cm
09:58 50.5 °F /  10.3 °C 49.4 °F /  9.7 °C 30.14in /  1020.5hPa SW 3.5mph /  5.6km/h 3.5mph /  5.6km/h 96% 0.00in /  0cm
10:03 50.2 °F /  10.1 °C 48.8 °F /  9.3 °C 30.14in /  1020.5hPa South 3.5mph /  5.6km/h 3.5mph /  5.6km/h 95% 0.00in /  0cm
10:08 50.9 °F /  10.5 °C 49.5 °F /  9.7 °C 30.13in /  1020.2hPa SSE 2.3mph /  3.7km/h 2.3mph /  3.7km/h 95% 0.00in /  0cm
10:13 51.3 °F /  10.7 °C 49.6 °F /  9.8 °C 30.13in /  1020.2hPa SW 2.3mph /  3.7km/h 2.3mph /  3.7km/h 94% 0.00in /  0cm
10:18 51.8 °F /  11 °C 50.1 °F /  10.1 °C 30.13in /  1020.2hPa SSE 2.3mph /  3.7km/h 2.5mph /  4km/h 94% 0.00in /  0cm
10:23 51.8 °F /  11 °C 49.8 °F /  9.9 °C 30.14in /  1020.5hPa SSE 2.3mph /  3.7km/h 2.3mph /  3.7km/h 93% 0.00in /  0cm
10:28 52.2 °F /  11.2 °C 49.6 °F /  9.8 °C 30.13in /  1020.2hPa SSE 2.3mph /  3.7km/h 2.3mph /  3.7km/h 91% 0.00in /  0cm
10:33 52.2 °F /  11.2 °C 49.6 °F /  9.8 °C 30.13in /  1020.2hPa SE 1.2mph /  1.9km/h   91% 0.00in /  0cm
10:38 52.3 °F /  11.3 °C 49.5 °F /  9.7 °C 30.13in /  1020.2hPa SW 2.3mph /  3.7km/h 2.3mph /  3.7km/h 90% 0.00in /  0cm
10:43 53.1 °F /  11.7 °C 49.9 °F /  9.9 °C 30.13in /  1020.2hPa SW 1.2mph /  1.9km/h 1.2mph /  1.9km/h 89% 0.00in /  0cm
10:48 53.2 °F /  11.8 °C 49.5 °F /  9.7 °C 30.13in /  1020.2hPa South 1.8mph /  2.9km/h 1.8mph /  2.9km/h 87% 0.00in /  0cm
10:53 53.4 °F /  11.9 °C 49.3 °F /  9.6 °C 30.13in /  1020.2hPa SSE 3.0mph /  4.8km/h 3.0mph /  4.8km/h 86% 0.00in /  0cm
10:58 53.8 °F /  12.1 °C 49.7 °F /  9.8 °C 30.13in /  1020.2hPa SE 3.5mph /  5.6km/h 3.5mph /  5.6km/h 86% 0.00in /  0cm
11:03 53.6 °F /  12 °C 49.2 °F /  9.6 °C 30.13in /  1020.2hPa East 1.2mph /  1.9km/h 1.2mph /  1.9km/h 85% 0.00in /  0cm
Wether-Above
Compliments of Weather Underground
Welcome to Weather-Above
Cheddleton weather station supplies various organisations with data from our weather station one of them is the weather Underground this information displayed here is coming from the weather Underground server 

If any information is used please acknowledge the source to www weather-above.com or weather Underground